Aeroporto :







RITROVATECI SU...

 
LOGIN :

Iscrizione | Disclaimer

   EN    FR    IT 

 









Sommario :    VFR   VFR Marginale   IFR   IFR Intensivo   IFR Molto Intensivo
Visibilità : 
Base nubi : 
>= 8 km
>= 3000ft
5 / 8 km
1000 / 3000 ft
1500m / 5 km
500 / 1000 ft
800 / 1500m
200 / 500 ft
< 800m
< 200 ft
Simboli :   Temporali  Nebbia  Neve Forte  Precipitazioni Forti  Vento > 20 kt







- Altitudine del aeroporto : 76 ft
- Codice IATA : PWM


KPWM - Portland International Jetport

ULTIMO METAR :
  • 210606Z AUTO 17006KT 2 1/2SM BR OVC002 12/11 A2998 RMK AO2 RAE0557 P0000 T01170111

METARs OBSOLETI :
  • 210558Z AUTO 17007KT 3SM BR OVC002 12/11 A2999 RMK AO2 RAE57 P0000 T01170111
  • 210551Z AUTO 19008KT 1 1/2SM -RA BR OVC002 12/11 A2998 RMK AO2 RAB47 SLP152 P0000 60003 T01170111 10139 20111 56001
  • 210539Z AUTO 22008KT 190V250 1 1/4SM BR OVC002 12/11 A2999 RMK AO2 T01170111
  • 210451Z AUTO 16006KT 1/2SM FG VV002 11/11 A2998 RMK AO2 SLP153 T01110106 401440111
  • 210351Z 20005KT 1/2SM FG VV002 11/11 A2997 RMK AO2 RAE10 SLP150 LAST P0000 T01110106

TAF KPWM
Valido dal 21 a 06 ore il 22 a 06 ore UTC


210522Z 2106/2206 17009KT 1SM -SHRA BR OVC002 WS020/19040KT
TEMPO 2106/2109 1/2SM FG VV002
FM211300 15006KT 3SM -SHRA BR BKN012 OVC025
FM211600 16006KT P6SM OVC035
FM220000 16003KT 3SM BR OVC007
FIR KZBW / America del Nord



MetMap, La meteo Aeronautica in un colpo d'occhio ! - Copyright ORBIFLY Dicembre 2007 - Disclaimer

ORBIFLY MET'MAP TEAM :

Programmazione e sviluppo : Alexandra Zaïnal
Concezione e sviluppo : Baudouin d'Aumeries
Co-Programmazione e sviluppo : Marc-Olivier Méhu
Supporto tecnico e logistico : Manuel Goepfert
Aiuto per la traduzione : Arnaldo La Scala

Contatto : metmap@orbifly.com




FONTI E CREDITI :

   NOAA